Cap Preston — A8OH5 — position and weather

sailwx.info

Track history (hours):
 
Tides and Currents Weather Stations Pressure Air Temp Water Temp Dewpoint Dewpoint Depression Visibility Wind Speed Wind Dir Waves Ship Positions

Cap Preston

Last reported at 2017-Dec-31 18:00 UTC. Time now 2018-Jan-20 21:06 UTC.
Position N 10°06' W 079°48'.
Warning: this ship's position is 20 days out of date.

Length 186 m; draft 9.4 m.

Type: Cargo ship. MMSI: 636091479.

Wind from 050 at 25 knots

Barometer 1018.0 mb
Air temperature 29.0 ° C
Visibility: greater than 10.8 NM
Dewpoint 23.5 ° C
Water temperature 30.0 ° C

Date/timePositionNaut miles runAvg speedWind from/ knotsBaromVisibWave heightAir tempDewpointWater temp
2017-Dec-31 18:00N 10°06' W 079°48'24117.7 050 / 251018.010.8 29.023.530.0
2017-Dec-31 04:22N 10°19' W 075°43'617.2
2017-Dec-31 04:00N 10°19' W 075°37'511.0
2017-Dec-31 03:30N 10°21' W 075°31'2 3.4
2017-Dec-31 03:00N 10°23' W 075°31'0 0.0
2017-Dec-31 02:30N 10°23' W 075°31'0 0.0
2017-Dec-31 02:00N 10°23' W 075°31'0 0.0
2017-Dec-31 01:30N 10°23' W 075°31'0 0.0
2017-Dec-31 01:00N 10°23' W 075°31'0 0.0
2017-Dec-31 00:30N 10°23' W 075°31'0 0.0
2017-Dec-30 23:53N 10°23' W 075°31'0 0.0
2017-Dec-30 23:15N 10°23' W 075°31'0 0.0
2017-Dec-30 22:51N 10°23' W 075°31'0 0.0
2017-Dec-30 22:27N 10°23' W 075°31'0 0.0
2017-Dec-30 21:57N 10°23' W 075°31'0 0.0
2017-Dec-30 21:27N 10°23' W 075°31'0 0.0
2017-Dec-30 20:57N 10°23' W 075°31'0 0.0
2017-Dec-30 20:30N 10°23' W 075°31'0 0.0
2017-Dec-30 19:57N 10°23' W 075°31'0 0.0
2017-Dec-30 19:27N 10°23' W 075°31'0 0.0
2017-Dec-30 18:57N 10°23' W 075°31'0 0.0
2017-Dec-30 18:27N 10°23' W 075°31'0 0.0
2017-Dec-30 17:57N 10°23' W 075°31'0 0.0
2017-Dec-30 17:27N 10°23' W 075°31'0 0.0
2017-Dec-30 16:57N 10°23' W 075°31'0 0.0
2017-Dec-30 16:30N 10°23' W 075°31'0 0.0
2017-Dec-30 16:00N 10°23' W 075°31'0 0.0
2017-Dec-30 15:27N 10°23' W 075°31'0 0.0
2017-Dec-30 14:57N 10°23' W 075°31'0 0.0
2017-Dec-30 14:27N 10°23' W 075°31'0 0.0
2017-Dec-30 13:57N 10°23' W 075°31'0 0.0
2017-Dec-30 13:26N 10°23' W 075°31'0 0.0
2017-Dec-30 12:57N 10°23' W 075°31'0 0.0
2017-Dec-30 12:27N 10°23' W 075°31'0 0.0
2017-Dec-30 12:00N 10°23' W 075°31'0 0.0
2017-Dec-30 11:30N 10°23' W 075°31'0 0.0
2017-Dec-30 11:00N 10°23' W 075°31'0 0.0
2017-Dec-30 10:30N 10°23' W 075°31'0 1.0
2017-Dec-30 10:00N 10°22' W 075°31'2 4.3
2017-Dec-30 09:30N 10°20' W 075°32'5 9.8
2017-Dec-30 09:00N 10°19' W 075°37'4 8.3
2017-Dec-30 08:30N 10°19' W 075°41'5 9.3
2017-Dec-30 08:00N 10°21' W 075°45'1 1.6
2017-Dec-30 07:30N 10°21' W 075°46'1 1.4
2017-Dec-30 07:00N 10°22' W 075°46'1 1.3
2017-Dec-30 06:29N 10°22' W 075°47'1 1.1
2017-Dec-30 05:58N 10°22' W 075°47'  
2017-Dec-28 00:44N 11°09' W 074°58'519.1
2017-Dec-28 00:30N 11°11' W 074°54'918.5
2017-Dec-28 00:00N 11°14' W 074°45'1018.7
2017-Dec-27 23:29N 11°14' W 074°35'918.7
2017-Dec-27 22:59N 11°15' W 074°26'3 0.2
2017-Dec-27 06:56N 11°14' W 074°28'3 2.6
2017-Dec-27 05:46N 11°11' W 074°28'1 4.1
2017-Dec-27 05:30N 11°11' W 074°29'3 5.3
2017-Dec-27 05:00N 11°14' W 074°31'2 3.5
2017-Dec-27 04:30N 11°14' W 074°33'2 3.3
2017-Dec-27 04:00N 11°14' W 074°34'2 3.3
2017-Dec-27 03:30N 11°14' W 074°36'2 3.8
2017-Dec-27 02:58N 11°12' W 074°35'1 1.7
2017-Dec-27 02:30N 11°12' W 074°36'3 6.1
2017-Dec-27 02:00N 11°15' W 074°36'1 2.6
2017-Dec-27 01:28N 11°13' W 074°37'2 5.2
2017-Dec-27 01:00N 11°11' W 074°36'16 0.8
2017-Dec-26 05:58N 10°58' W 074°46'0 0.0
2017-Dec-26 05:28N 10°58' W 074°46'7 0.6
2017-Dec-25 17:17N 11°03' W 074°50'3 9.9
2017-Dec-25 16:58N 11°06' W 074°51'  
Track history (hours):
 
Tides and Currents Weather Stations Pressure Air Temp Water Temp Dewpoint Dewpoint Depression Visibility Wind Speed Wind Dir Waves Ship Positions

Cap Preston

Last reported at 2017-Dec-31 18:00 UTC. Time now 2018-Jan-20 21:06 UTC.
Position N 10°06' W 079°48'.
Warning: this ship's position is 20 days out of date.

Length 186 m; draft 9.4 m.

Type: Cargo ship. MMSI: 636091479.

Wind from 050 at 25 knots

Barometer 1018.0 mb
Air temperature 29.0 ° C
Visibility: greater than 10.8 NM
Dewpoint 23.5 ° C
Water temperature 30.0 ° C

Date/timePositionNaut miles runAvg speedWind from/ knotsBaromVisibWave heightAir tempDewpointWater temp
2017-Dec-31 18:00N 10°06' W 079°48'24117.7 050 / 251018.010.8 29.023.530.0
2017-Dec-31 04:22N 10°19' W 075°43'617.2
2017-Dec-31 04:00N 10°19' W 075°37'511.0
2017-Dec-31 03:30N 10°21' W 075°31'2 3.4
2017-Dec-31 03:00N 10°23' W 075°31'0 0.0
2017-Dec-31 02:30N 10°23' W 075°31'0 0.0
2017-Dec-31 02:00N 10°23' W 075°31'0 0.0
2017-Dec-31 01:30N 10°23' W 075°31'0 0.0
2017-Dec-31 01:00N 10°23' W 075°31'0 0.0
2017-Dec-31 00:30N 10°23' W 075°31'0 0.0
2017-Dec-30 23:53N 10°23' W 075°31'0 0.0
2017-Dec-30 23:15N 10°23' W 075°31'0 0.0
2017-Dec-30 22:51N 10°23' W 075°31'0 0.0
2017-Dec-30 22:27N 10°23' W 075°31'0 0.0
2017-Dec-30 21:57N 10°23' W 075°31'0 0.0
2017-Dec-30 21:27N 10°23' W 075°31'0 0.0
2017-Dec-30 20:57N 10°23' W 075°31'0 0.0
2017-Dec-30 20:30N 10°23' W 075°31'0 0.0
2017-Dec-30 19:57N 10°23' W 075°31'0 0.0
2017-Dec-30 19:27N 10°23' W 075°31'0 0.0
2017-Dec-30 18:57N 10°23' W 075°31'0 0.0
2017-Dec-30 18:27N 10°23' W 075°31'0 0.0
2017-Dec-30 17:57N 10°23' W 075°31'0 0.0
2017-Dec-30 17:27N 10°23' W 075°31'0 0.0
2017-Dec-30 16:57N 10°23' W 075°31'0 0.0
2017-Dec-30 16:30N 10°23' W 075°31'0 0.0
2017-Dec-30 16:00N 10°23' W 075°31'0 0.0
2017-Dec-30 15:27N 10°23' W 075°31'0 0.0
2017-Dec-30 14:57N 10°23' W 075°31'0 0.0
2017-Dec-30 14:27N 10°23' W 075°31'0 0.0
2017-Dec-30 13:57N 10°23' W 075°31'0 0.0
2017-Dec-30 13:26N 10°23' W 075°31'0 0.0
2017-Dec-30 12:57N 10°23' W 075°31'0 0.0
2017-Dec-30 12:27N 10°23' W 075°31'0 0.0
2017-Dec-30 12:00N 10°23' W 075°31'0 0.0
2017-Dec-30 11:30N 10°23' W 075°31'0 0.0
2017-Dec-30 11:00N 10°23' W 075°31'0 0.0
2017-Dec-30 10:30N 10°23' W 075°31'0 1.0
2017-Dec-30 10:00N 10°22' W 075°31'2 4.3
2017-Dec-30 09:30N 10°20' W 075°32'5 9.8
2017-Dec-30 09:00N 10°19' W 075°37'4 8.3
2017-Dec-30 08:30N 10°19' W 075°41'5 9.3
2017-Dec-30 08:00N 10°21' W 075°45'1 1.6
2017-Dec-30 07:30N 10°21' W 075°46'1 1.4
2017-Dec-30 07:00N 10°22' W 075°46'1 1.3
2017-Dec-30 06:29N 10°22' W 075°47'1 1.1
2017-Dec-30 05:58N 10°22' W 075°47'  
2017-Dec-28 00:44N 11°09' W 074°58'519.1
2017-Dec-28 00:30N 11°11' W 074°54'918.5
2017-Dec-28 00:00N 11°14' W 074°45'1018.7
2017-Dec-27 23:29N 11°14' W 074°35'918.7
2017-Dec-27 22:59N 11°15' W 074°26'3 0.2
2017-Dec-27 06:56N 11°14' W 074°28'3 2.6
2017-Dec-27 05:46N 11°11' W 074°28'1 4.1
2017-Dec-27 05:30N 11°11' W 074°29'3 5.3
2017-Dec-27 05:00N 11°14' W 074°31'2 3.5
2017-Dec-27 04:30N 11°14' W 074°33'2 3.3
2017-Dec-27 04:00N 11°14' W 074°34'2 3.3
2017-Dec-27 03:30N 11°14' W 074°36'2 3.8
2017-Dec-27 02:58N 11°12' W 074°35'1 1.7
2017-Dec-27 02:30N 11°12' W 074°36'3 6.1
2017-Dec-27 02:00N 11°15' W 074°36'1 2.6
2017-Dec-27 01:28N 11°13' W 074°37'2 5.2
2017-Dec-27 01:00N 11°11' W 074°36'16 0.8
2017-Dec-26 05:58N 10°58' W 074°46'0 0.0
2017-Dec-26 05:28N 10°58' W 074°46'7 0.6
2017-Dec-25 17:17N 11°03' W 074°50'3 9.9
2017-Dec-25 16:58N 11°06' W 074°51'  

Dump ship's entire track history